Monday, January 21, 2019, 5:47 PM EST
Back to Local

KUKT, Quakertown, Quakertown Airport

Location: Quakertown, PA, United States Lat: 40.435
Local Time: 5:47 PM EST (22:47 GMT) Lon: -75.382
Time Zone: US/Eastern Elev: 524 ft

Show me the last for .
Show Decoded

2019-01-21 17:35 METAR KUKT 212235Z AUTO 26013G19KT 220V310 10SM CLR M10/M24 A3027 RMK A01 =
2019-01-21 17:20 METAR KUKT 212220Z AUTO 26009G18KT 180V300 10SM CLR M10/M24 A3026 RMK A01 =
2019-01-21 17:15 METAR KUKT 212215Z AUTO 25012KT 190V300 10SM CLR M10/M23 A3026 RMK A01 =
2019-01-21 16:55 METAR KUKT 212155Z AUTO 25011G20KT 190V310 10SM CLR M10/M23 A3024 RMK A01 =
2019-01-21 16:35 METAR KUKT 212135Z AUTO 24014G22KT 210V290 10SM CLR M10/M24 A3023 RMK A01 =
2019-01-21 16:20 METAR KUKT 212120Z AUTO 26012G21KT 220V300 10SM CLR M10/M24 A3023 RMK A01 =
2019-01-21 16:15 METAR KUKT 212115Z AUTO 26016KT 210V290 10SM CLR M09/M24 A3022 RMK A01 =
2019-01-21 15:55 METAR KUKT 212055Z AUTO 25012G22KT 210V280 10SM CLR M09/M23 A3022 RMK A01 =
2019-01-21 15:35 METAR KUKT 212035Z AUTO 26016G26KT 230V300 10SM CLR M09/M24 A3021 RMK A01 =
2019-01-21 15:20 METAR KUKT 212020Z AUTO 26015G22KT 220V280 10SM CLR M09/M23 A3021 RMK A01 =
2019-01-21 15:15 METAR KUKT 212015Z AUTO 25013G25KT 210V280 10SM CLR M09/M23 A3020 RMK A01 =
2019-01-21 15:00 METAR KUKT 212000Z AUTO 27009G20KT 200V310 10SM CLR M09/M23 A3019 RMK A01 =
2019-01-21 14:55 METAR KUKT 211955Z AUTO 26013G20KT 220V300 10SM CLR M09/M23 A3019 RMK A01 =
2019-01-21 14:35 METAR KUKT 211935Z AUTO 25012G25KT 210V300 10SM CLR M10/M23 A3018 RMK A01 =
2019-01-21 14:15 METAR KUKT 211915Z AUTO 27014G24KT 10SM CLR M10/M23 A3017 RMK A01 =
2019-01-21 14:00 METAR KUKT 211900Z AUTO 24010G23KT 190V290 10SM CLR M10/M23 A3017 RMK A01 =
2019-01-21 13:55 METAR KUKT 211855Z AUTO 25010G24KT 220V320 10SM CLR M10/M23 A3017 RMK A01 =
2019-01-21 13:40 METAR KUKT 211840Z AUTO 26010G22KT 190V350 10SM CLR M10/M22 A3017 RMK A01 =
2019-01-21 13:35 METAR KUKT 211835Z AUTO 28012G22KT 230V320 10SM CLR M11/M22 A3017 RMK A01 =
2019-01-21 13:15 METAR KUKT 211815Z AUTO 26014G24KT 210V310 10SM CLR M11/M22 A3017 RMK A01 =
2019-01-21 13:00 METAR KUKT 211800Z AUTO 26011G28KT 200V310 10SM FEW049 M12/M22 A3017 RMK A01 =
2019-01-21 12:55 METAR KUKT 211755Z AUTO 25017G28KT 220V300 10SM FEW049 M12/M22 A3018 RMK A01 =
2019-01-21 12:40 METAR KUKT 211740Z AUTO 26015G25KT 220V310 10SM CLR M12/M22 A3018 RMK A01 =
2019-01-21 12:35 METAR KUKT 211735Z AUTO 25016G25KT 230V290 10SM CLR M12/M22 A3017 RMK A01 =
2019-01-21 12:15 METAR KUKT 211715Z AUTO 25013G22KT 210V290 10SM CLR M12/M22 A3017 RMK A01 =
2019-01-21 11:55 METAR KUKT 211655Z AUTO 25013G24KT 220V290 10SM CLR M13/M22 A3017 RMK A01 =
2019-01-21 11:40 METAR KUKT 211640Z AUTO 24015G24KT 210V280 10SM FEW043 M13/M22 A3017 RMK A01 =
2019-01-21 11:35 METAR KUKT 211635Z AUTO 24014G24KT 210V280 10SM FEW043 M13/M22 A3016 RMK A01 =
2019-01-21 11:20 METAR KUKT 211620Z AUTO 25011G24KT 220V290 10SM FEW044 M13/M23 A3016 RMK A01 =
2019-01-21 11:15 METAR KUKT 211615Z AUTO 25010G21KT 220V300 10SM FEW044 M13/M22 A3016 RMK A01 =
2019-01-21 10:55 METAR KUKT 211555Z AUTO 25016G23KT 220V300 10SM CLR M13/M23 A3015 RMK A01 =
2019-01-21 10:40 METAR KUKT 211540Z AUTO 26013G25KT 230V300 10SM CLR M13/M23 A3015 RMK A01 =
2019-01-21 10:35 METAR KUKT 211535Z AUTO 27016G29KT 230V330 10SM CLR M14/M23 A3014 RMK A01 =
2019-01-21 10:20 METAR KUKT 211520Z AUTO 27014G21KT 220V310 10SM CLR M14/M23 A3013 RMK A01 =
2019-01-21 10:15 METAR KUKT 211515Z AUTO 27013G24KT 220V300 10SM CLR M14/M23 A3013 RMK A01 =
2019-01-21 09:55 METAR KUKT 211455Z AUTO VRB06G19KT 10SM FEW045 M14/M23 A3013 RMK A01 =
2019-01-21 09:35 METAR KUKT 211435Z AUTO 00000KT 10SM FEW044 M14/M24 A3012 RMK A01 =
2019-01-21 09:20 METAR KUKT 211420Z AUTO 10SM CLR M14/M24 A3011 RMK A01 =
2019-01-21 09:15 METAR KUKT 211415Z AUTO 00000KT 10SM CLR M14/M24 A3010 RMK A01 =
2019-01-21 09:00 METAR KUKT 211400Z AUTO 00000KT 10SM CLR M15/M23 A3009 RMK A01 =
2019-01-21 08:55 METAR KUKT 211355Z AUTO 00000KT 10SM CLR M15/M24 A3009 RMK A01 =
2019-01-21 08:35 METAR KUKT 211335Z AUTO 00000KT 10SM CLR M15/M24 A3007 RMK A01 =
2019-01-21 08:15 METAR KUKT 211315Z AUTO 00000KT 10SM FEW041 M15/M24 A3006 RMK A01 =
2019-01-21 08:00 METAR KUKT 211300Z AUTO 00000KT 10SM CLR M15/M24 A3006 RMK A01 =
2019-01-21 07:55 METAR KUKT 211255Z AUTO 00000KT 10SM CLR M15/M24 A3005 RMK A01 =
2019-01-21 07:40 METAR KUKT 211240Z AUTO 00000KT 10SM CLR M15/M23 A3004 RMK A01 =
2019-01-21 07:35 METAR KUKT 211235Z AUTO 00000KT 10SM CLR M15/M23 A3004 RMK A01 =
2019-01-21 07:15 METAR KUKT 211215Z AUTO 10SM CLR M15/M23 A3003 RMK A01 =
2019-01-21 07:00 METAR KUKT 211200Z AUTO 00000KT 10SM FEW040 M15/M23 A3002 RMK A01 =
2019-01-21 06:55 METAR KUKT 211155Z AUTO 00000KT 10SM FEW039 M15/M23 A3002 RMK A01 =
2019-01-21 06:40 METAR KUKT 211140Z AUTO 00000KT 10SM CLR M15/M23 A3001 RMK A01 =
2019-01-21 06:35 METAR KUKT 211135Z AUTO 00000KT 10SM CLR M15/M23 A3001 RMK A01 =
2019-01-21 06:15 METAR KUKT 211115Z AUTO 10SM CLR M15/M23 A3000 RMK A01 =
2019-01-21 05:55 METAR KUKT 211055Z AUTO 00000KT 10SM CLR M15/M22 A2999 RMK A01 =
2019-01-21 05:40 METAR KUKT 211040Z AUTO 10SM CLR M15/M22 A2998 RMK A01 =
2019-01-21 05:35 METAR KUKT 211035Z AUTO 00000KT 10SM CLR M15/M22 A2998 RMK A01 =
2019-01-21 05:20 METAR KUKT 211020Z AUTO 00000KT 10SM CLR M15/M22 A2997 RMK A01 =
2019-01-21 05:15 METAR KUKT 211015Z AUTO 00000KT 10SM CLR M15/M22 A2998 RMK A01 =
2019-01-21 04:55 METAR KUKT 210955Z AUTO 00000KT 10SM CLR M15/M22 A2997 RMK A01 =
2019-01-21 04:40 METAR KUKT 210940Z AUTO 00000KT 10SM CLR M15/M22 A2996 RMK A01 =
2019-01-21 04:35 METAR KUKT 210935Z AUTO 00000KT 10SM CLR M14/M22 A2996 RMK A01 =
2019-01-21 04:20 METAR KUKT 210920Z AUTO 10SM CLR M14/M22 A2995 RMK A01 =
2019-01-21 04:15 METAR KUKT 210915Z AUTO 00000KT 10SM CLR M14/M21 A2995 RMK A01 =
2019-01-21 04:00 METAR KUKT 210900Z AUTO 00000KT 10SM CLR M14/M21 A2995 RMK A01 =
2019-01-21 03:55 METAR KUKT 210855Z AUTO 10SM CLR M14/M22 A2995 RMK A01 =
2019-01-21 03:35 METAR KUKT 210835Z AUTO 10SM CLR M14/M21 A2994 RMK A01 =
2019-01-21 03:20 METAR KUKT 210820Z AUTO 00000KT 10SM CLR M14/M22 A2994 RMK A01 =
2019-01-21 03:15 METAR KUKT 210815Z AUTO 00000KT 10SM CLR M14/M22 A2994 RMK A01 =
2019-01-21 02:55 METAR KUKT 210755Z AUTO 00000KT 10SM CLR M14/M21 A2994 RMK A01 =
2019-01-21 02:35 METAR KUKT 210735Z AUTO 00000KT 10SM CLR M13/M21 A2992 RMK A01 =
2019-01-21 02:20 METAR KUKT 210720Z AUTO 00000KT 10SM CLR M13/M21 A2992 RMK A01 =
2019-01-21 02:15 METAR KUKT 210715Z AUTO 00000KT 10SM CLR M13/M21 A2992 RMK A01 =
2019-01-21 02:00 METAR KUKT 210700Z AUTO 00000KT 10SM CLR M13/M20 A2991 RMK A01 =
2019-01-21 01:55 METAR KUKT 210655Z AUTO 00000KT 10SM CLR M13/M20 A2991 RMK A01 =
2019-01-21 01:35 METAR KUKT 210635Z AUTO 00000KT 10SM FEW039 M13/M20 A2990 RMK A01 =
2019-01-21 01:15 METAR KUKT 210615Z AUTO 00000KT 10SM FEW040 M12/M19 A2989 RMK A01 =
2019-01-21 01:00 METAR KUKT 210600Z AUTO 00000KT 10SM CLR M12/M20 A2988 RMK A01 =
2019-01-21 00:55 METAR KUKT 210555Z AUTO 00000KT 10SM CLR M12/M20 A2988 RMK A01 =
2019-01-21 00:40 METAR KUKT 210540Z AUTO 10SM FEW040 M12/M19 A2988 RMK A01 =
2019-01-21 00:35 METAR KUKT 210535Z AUTO 10SM FEW040 M12/M19 A2987 RMK A01 =
2019-01-21 00:15 METAR KUKT 210515Z AUTO 00000KT 10SM FEW039 M12/M19 A2987 RMK A01 =
2019-01-20 23:55 METAR KUKT 210455Z AUTO 00000KT 10SM FEW039 M11/M19 A2986 RMK A01 =
2019-01-20 23:40 METAR KUKT 210440Z AUTO 00000KT 10SM FEW038 M11/M18 A2985 RMK A01 =
2019-01-20 23:35 METAR KUKT 210435Z AUTO 00000KT 10SM FEW038 M11/M18 A2984 RMK A01 =
2019-01-20 23:15 METAR KUKT 210415Z AUTO 00000KT 10SM FEW040 M11/M19 A2983 RMK A01 =
2019-01-20 22:55 METAR KUKT 210355Z AUTO 00000KT 10SM SCT039 M11/M18 A2983 RMK A01 =
2019-01-20 22:40 METAR KUKT 210340Z AUTO 00000KT 10SM BKN039 M10/M18 A2982 RMK A01 =
2019-01-20 22:35 METAR KUKT 210335Z AUTO 00000KT 10SM BKN038 M10/M18 A2982 RMK A01 =
2019-01-20 22:20 METAR KUKT 210320Z AUTO 10SM OVC038 M10/M17 A2981 RMK A01 =
2019-01-20 22:15 METAR KUKT 210315Z AUTO 00000KT 10SM OVC038 M10/M17 A2981 RMK A01 =
2019-01-20 21:55 METAR KUKT 210255Z AUTO 00000KT 10SM OVC038 M10/M16 A2979 RMK A01 =
2019-01-20 21:35 METAR KUKT 210235Z AUTO 00000KT 10SM OVC039 M09/M17 A2978 RMK A01 =
2019-01-20 21:20 METAR KUKT 210220Z AUTO 00000KT 10SM OVC038 M09/M16 A2978 RMK A01 =
2019-01-20 21:15 METAR KUKT 210215Z AUTO 00000KT 10SM OVC038 M09/M16 A2977 RMK A01 =
2019-01-20 21:00 METAR KUKT 210200Z AUTO 00000KT 10SM OVC036 M09/M16 A2976 RMK A01 =
2019-01-20 20:55 METAR KUKT 210155Z AUTO 10SM OVC035 M09/M15 A2976 RMK A01 =
2019-01-20 20:35 METAR KUKT 210135Z AUTO 10SM BKN035 M08/M15 A2975 RMK A01 =
2019-01-20 20:20 METAR KUKT 210120Z AUTO 00000KT 10SM BKN035 M08/M15 A2975 RMK A01 =
2019-01-20 20:15 METAR KUKT 210115Z AUTO 00000KT 10SM BKN035 M08/M14 A2975 RMK A01 =
2019-01-20 20:00 METAR KUKT 210100Z AUTO 00000KT 10SM OVC033 M08/M15 A2975 RMK A01 =
2019-01-20 19:55 METAR KUKT 210055Z AUTO 00000KT 10SM OVC033 M08/M14 A2975 RMK A01 =
2019-01-20 19:35 METAR KUKT 210035Z AUTO 00000KT 10SM OVC033 M08/M14 A2974 RMK A01 =
2019-01-20 19:15 METAR KUKT 210015Z AUTO 00000KT 10SM OVC033 M08/M14 A2973 RMK A01 =
2019-01-20 19:00 METAR KUKT 210000Z AUTO 00000KT 10SM FEW026 OVC032 M08/M14 A2972 RMK A01 =
2019-01-20 18:55 METAR KUKT 202355Z AUTO 00000KT 10SM FEW023 BKN032 M08/M15 A2972 RMK A01 =
2019-01-20 18:40 METAR KUKT 202340Z AUTO 29006G18KT 10SM FEW022 FEW026 SCT033 M08/M15 A2971 RMK
                 A01 =
2019-01-20 18:35 METAR KUKT 202335Z AUTO 00000G18KT 10SM FEW023 SCT033 M08/M15 A2970 RMK A01 =
2019-01-20 18:15 METAR KUKT 202315Z AUTO 29007G19KT 240V320 10SM FEW033 M08/M14 A2969 RMK A01 =
2019-01-20 17:55 METAR KUKT 202255Z AUTO 00000KT 10SM M07/M13 A2967 RMK A01 =

Support USWX by starting your Amazon purchase here.